sensor_id;sensor_type;location;lat;lon;timestamp;P1;durP1;ratioP1;P2;durP2;ratioP2
7965;SDS011;4028;43.272;26.932;2023-04-23T00:02:02;9.23;;;5.87;;
7965;SDS011;4028;43.272;26.932;2023-04-23T00:04:30;9.47;;;5.87;;
7965;SDS011;4028;43.272;26.932;2023-04-23T00:07:01;9.30;;;5.57;;
7965;SDS011;4028;43.272;26.932;2023-04-23T00:09:27;7.20;;;4.90;;
7965;SDS011;4028;43.272;26.932;2023-04-23T00:11:55;11.07;;;5.20;;
7965;SDS011;4028;43.272;26.932;2023-04-23T00:14:22;10.93;;;6.73;;
7965;SDS011;4028;43.272;26.932;2023-04-23T00:16:47;11.53;;;6.40;;
7965;SDS011;4028;43.272;26.932;2023-04-23T00:19:13;12.90;;;6.67;;
7965;SDS011;4028;43.272;26.932;2023-04-23T00:21:39;12.17;;;7.37;;
7965;SDS011;4028;43.272;26.932;2023-04-23T00:24:04;12.97;;;7.20;;
7965;SDS011;4028;43.272;26.932;2023-04-23T00:26:30;8.77;;;5.40;;
7965;SDS011;4028;43.272;26.932;2023-04-23T00:28:55;9.90;;;5.10;;
7965;SDS011;4028;43.272;26.932;2023-04-23T00:31:21;11.53;;;4.93;;
7965;SDS011;4028;43.272;26.932;2023-04-23T00:33:48;7.33;;;5.00;;
7965;SDS011;4028;43.272;26.932;2023-04-23T00:36:13;6.50;;;5.83;;
7965;SDS011;4028;43.272;26.932;2023-04-23T00:38:39;12.30;;;6.20;;
7965;SDS011;4028;43.272;26.932;2023-04-23T00:41:04;11.97;;;5.63;;
7965;SDS011;4028;43.272;26.932;2023-04-23T00:43:31;8.10;;;5.70;;
7965;SDS011;4028;43.272;26.932;2023-04-23T00:45:57;8.67;;;5.37;;
7965;SDS011;4028;43.272;26.932;2023-04-23T00:48:23;10.37;;;5.40;;
7965;SDS011;4028;43.272;26.932;2023-04-23T00:50:56;12.13;;;5.27;;
7965;SDS011;4028;43.272;26.932;2023-04-23T00:53:27;5.47;;;4.97;;
7965;SDS011;4028;43.272;26.932;2023-04-23T00:55:53;5.97;;;5.13;;
7965;SDS011;4028;43.272;26.932;2023-04-23T00:58:19;10.43;;;5.00;;
7965;SDS011;4028;43.272;26.932;2023-04-23T01:00:45;9.23;;;5.40;;
7965;SDS011;4028;43.272;26.932;2023-04-23T01:03:13;8.73;;;4.70;;
7965;SDS011;4028;43.272;26.932;2023-04-23T01:05:40;5.97;;;4.90;;
7965;SDS011;4028;43.272;26.932;2023-04-23T01:08:06;7.40;;;4.83;;
7965;SDS011;4028;43.272;26.932;2023-04-23T01:10:32;8.63;;;4.60;;
7965;SDS011;4028;43.272;26.932;2023-04-23T01:12:58;7.63;;;4.43;;
7965;SDS011;4028;43.272;26.932;2023-04-23T01:15:24;8.10;;;4.50;;
7965;SDS011;4028;43.272;26.932;2023-04-23T01:17:49;9.73;;;6.00;;
7965;SDS011;4028;43.272;26.932;2023-04-23T01:20:16;8.90;;;4.57;;
7965;SDS011;4028;43.272;26.932;2023-04-23T01:22:41;11.33;;;6.43;;
7965;SDS011;4028;43.272;26.932;2023-04-23T01:25:07;9.63;;;5.47;;
7965;SDS011;4028;43.272;26.932;2023-04-23T01:27:32;7.90;;;5.23;;
7965;SDS011;4028;43.272;26.932;2023-04-23T01:30:01;9.73;;;5.47;;
7965;SDS011;4028;43.272;26.932;2023-04-23T01:32:29;7.20;;;5.37;;
7965;SDS011;4028;43.272;26.932;2023-04-23T01:34:55;9.23;;;5.40;;
7965;SDS011;4028;43.272;26.932;2023-04-23T01:37:22;13.37;;;5.57;;
7965;SDS011;4028;43.272;26.932;2023-04-23T01:39:49;11.10;;;6.60;;
7965;SDS011;4028;43.272;26.932;2023-04-23T01:42:15;10.73;;;7.67;;
7965;SDS011;4028;43.272;26.932;2023-04-23T01:44:40;13.83;;;6.53;;
7965;SDS011;4028;43.272;26.932;2023-04-23T01:47:06;9.87;;;6.23;;
7965;SDS011;4028;43.272;26.932;2023-04-23T01:49:32;8.83;;;5.47;;
7965;SDS011;4028;43.272;26.932;2023-04-23T01:51:57;8.20;;;5.57;;
7965;SDS011;4028;43.272;26.932;2023-04-23T01:54:23;10.57;;;6.07;;
7965;SDS011;4028;43.272;26.932;2023-04-23T01:56:49;12.10;;;5.77;;
7965;SDS011;4028;43.272;26.932;2023-04-23T01:59:18;10.03;;;5.60;;
7965;SDS011;4028;43.272;26.932;2023-04-23T02:01:45;10.23;;;5.70;;
7965;SDS011;4028;43.272;26.932;2023-04-23T02:04:12;11.43;;;5.17;;
7965;SDS011;4028;43.272;26.932;2023-04-23T02:06:39;9.87;;;5.63;;
7965;SDS011;4028;43.272;26.932;2023-04-23T02:09:06;10.10;;;5.63;;
7965;SDS011;4028;43.272;26.932;2023-04-23T02:11:32;8.70;;;5.10;;
7965;SDS011;4028;43.272;26.932;2023-04-23T02:13:57;8.80;;;5.33;;
7965;SDS011;4028;43.272;26.932;2023-04-23T02:16:23;8.37;;;4.87;;
7965;SDS011;4028;43.272;26.932;2023-04-23T02:18:48;10.83;;;5.07;;
7965;SDS011;4028;43.272;26.932;2023-04-23T02:21:14;8.03;;;4.33;;
7965;SDS011;4028;43.272;26.932;2023-04-23T02:23:40;9.23;;;4.70;;
7965;SDS011;4028;43.272;26.932;2023-04-23T02:26:05;7.70;;;4.63;;
7965;SDS011;4028;43.272;26.932;2023-04-23T02:28:31;10.20;;;5.00;;
7965;SDS011;4028;43.272;26.932;2023-04-23T02:30:57;8.13;;;4.80;;
7965;SDS011;4028;43.272;26.932;2023-04-23T02:33:22;8.27;;;5.70;;
7965;SDS011;4028;43.272;26.932;2023-04-23T02:35:49;9.47;;;6.00;;
7965;SDS011;4028;43.272;26.932;2023-04-23T02:38:15;8.20;;;5.50;;
7965;SDS011;4028;43.272;26.932;2023-04-23T02:40:40;8.37;;;6.40;;
7965;SDS011;4028;43.272;26.932;2023-04-23T02:43:06;9.63;;;6.57;;
7965;SDS011;4028;43.272;26.932;2023-04-23T02:45:31;14.30;;;7.73;;
7965;SDS011;4028;43.272;26.932;2023-04-23T02:47:57;12.23;;;7.60;;
7965;SDS011;4028;43.272;26.932;2023-04-23T02:50:22;12.00;;;7.87;;
7965;SDS011;4028;43.272;26.932;2023-04-23T02:52:48;9.83;;;6.90;;
7965;SDS011;4028;43.272;26.932;2023-04-23T02:55:13;15.37;;;7.63;;
7965;SDS011;4028;43.272;26.932;2023-04-23T02:57:40;8.17;;;6.57;;
7965;SDS011;4028;43.272;26.932;2023-04-23T03:00:06;8.20;;;6.23;;
7965;SDS011;4028;43.272;26.932;2023-04-23T03:02:32;9.57;;;5.70;;
7965;SDS011;4028;43.272;26.932;2023-04-23T03:04:57;9.93;;;6.07;;
7965;SDS011;4028;43.272;26.932;2023-04-23T03:07:23;6.97;;;5.60;;
7965;SDS011;4028;43.272;26.932;2023-04-23T03:09:48;8.47;;;5.63;;
7965;SDS011;4028;43.272;26.932;2023-04-23T03:12:14;11.13;;;6.50;;
7965;SDS011;4028;43.272;26.932;2023-04-23T03:14:40;11.47;;;6.60;;
7965;SDS011;4028;43.272;26.932;2023-04-23T03:17:05;12.60;;;6.23;;
7965;SDS011;4028;43.272;26.932;2023-04-23T03:19:31;12.50;;;6.20;;
7965;SDS011;4028;43.272;26.932;2023-04-23T03:21:57;11.10;;;6.20;;
7965;SDS011;4028;43.272;26.932;2023-04-23T03:24:23;8.13;;;7.33;;
7965;SDS011;4028;43.272;26.932;2023-04-23T03:26:48;11.97;;;7.30;;
7965;SDS011;4028;43.272;26.932;2023-04-23T03:29:14;13.43;;;7.23;;
7965;SDS011;4028;43.272;26.932;2023-04-23T03:31:39;10.80;;;6.77;;
7965;SDS011;4028;43.272;26.932;2023-04-23T03:34:05;11.47;;;7.33;;
7965;SDS011;4028;43.272;26.932;2023-04-23T03:36:30;9.17;;;6.53;;
7965;SDS011;4028;43.272;26.932;2023-04-23T03:38:56;10.60;;;7.30;;
7965;SDS011;4028;43.272;26.932;2023-04-23T03:41:21;10.20;;;6.57;;
7965;SDS011;4028;43.272;26.932;2023-04-23T03:43:47;14.23;;;6.73;;
7965;SDS011;4028;43.272;26.932;2023-04-23T03:46:12;18.07;;;7.40;;
7965;SDS011;4028;43.272;26.932;2023-04-23T03:48:38;15.07;;;7.40;;
7965;SDS011;4028;43.272;26.932;2023-04-23T03:51:03;14.73;;;7.07;;
7965;SDS011;4028;43.272;26.932;2023-04-23T03:53:29;12.63;;;8.73;;
7965;SDS011;4028;43.272;26.932;2023-04-23T03:55:54;13.23;;;9.00;;
7965;SDS011;4028;43.272;26.932;2023-04-23T03:58:20;18.00;;;8.17;;
7965;SDS011;4028;43.272;26.932;2023-04-23T04:00:45;14.77;;;8.80;;
7965;SDS011;4028;43.272;26.932;2023-04-23T04:03:11;13.43;;;7.87;;
7965;SDS011;4028;43.272;26.932;2023-04-23T04:05:36;13.00;;;7.93;;
7965;SDS011;4028;43.272;26.932;2023-04-23T04:08:02;16.50;;;7.87;;
7965;SDS011;4028;43.272;26.932;2023-04-23T04:10:29;14.53;;;7.47;;
7965;SDS011;4028;43.272;26.932;2023-04-23T04:12:55;11.33;;;5.70;;
7965;SDS011;4028;43.272;26.932;2023-04-23T04:15:20;10.43;;;6.43;;
7965;SDS011;4028;43.272;26.932;2023-04-23T04:17:46;15.13;;;6.17;;
7965;SDS011;4028;43.272;26.932;2023-04-23T04:20:12;17.23;;;7.23;;
7965;SDS011;4028;43.272;26.932;2023-04-23T04:22:37;14.30;;;7.00;;
7965;SDS011;4028;43.272;26.932;2023-04-23T04:25:03;14.00;;;6.60;;
7965;SDS011;4028;43.272;26.932;2023-04-23T04:27:29;11.17;;;6.60;;
7965;SDS011;4028;43.272;26.932;2023-04-23T04:29:58;11.53;;;6.20;;
7965;SDS011;4028;43.272;26.932;2023-04-23T04:32:25;11.03;;;6.30;;
7965;SDS011;4028;43.272;26.932;2023-04-23T04:34:51;12.20;;;6.23;;
7965;SDS011;4028;43.272;26.932;2023-04-23T04:37:16;15.30;;;7.20;;
7965;SDS011;4028;43.272;26.932;2023-04-23T04:39:42;14.67;;;7.53;;
7965;SDS011;4028;43.272;26.932;2023-04-23T04:42:07;12.63;;;8.00;;
7965;SDS011;4028;43.272;26.932;2023-04-23T04:44:33;19.70;;;9.17;;
7965;SDS011;4028;43.272;26.932;2023-04-23T04:47:01;11.77;;;8.63;;
7965;SDS011;4028;43.272;26.932;2023-04-23T04:49:27;16.10;;;8.13;;
7965;SDS011;4028;43.272;26.932;2023-04-23T04:51:52;14.07;;;8.17;;
7965;SDS011;4028;43.272;26.932;2023-04-23T04:54:18;17.23;;;8.80;;
7965;SDS011;4028;43.272;26.932;2023-04-23T04:56:44;12.27;;;8.27;;
7965;SDS011;4028;43.272;26.932;2023-04-23T04:59:09;13.93;;;8.73;;
7965;SDS011;4028;43.272;26.932;2023-04-23T05:01:34;13.13;;;8.53;;
7965;SDS011;4028;43.272;26.932;2023-04-23T05:04:01;11.97;;;9.17;;
7965;SDS011;4028;43.272;26.932;2023-04-23T05:06:26;12.60;;;9.70;;
7965;SDS011;4028;43.272;26.932;2023-04-23T05:08:52;16.93;;;9.20;;
7965;SDS011;4028;43.272;26.932;2023-04-23T05:11:18;10.07;;;8.97;;
7965;SDS011;4028;43.272;26.932;2023-04-23T05:13:45;12.03;;;8.60;;
7965;SDS011;4028;43.272;26.932;2023-04-23T05:16:12;10.10;;;9.10;;
7965;SDS011;4028;43.272;26.932;2023-04-23T05:18:38;16.03;;;9.10;;
7965;SDS011;4028;43.272;26.932;2023-04-23T05:21:04;13.63;;;8.83;;
7965;SDS011;4028;43.272;26.932;2023-04-23T05:23:30;16.93;;;9.37;;
7965;SDS011;4028;43.272;26.932;2023-04-23T05:25:56;10.20;;;8.30;;
7965;SDS011;4028;43.272;26.932;2023-04-23T05:28:23;10.60;;;9.50;;
7965;SDS011;4028;43.272;26.932;2023-04-23T05:30:49;12.80;;;9.10;;
7965;SDS011;4028;43.272;26.932;2023-04-23T05:33:14;10.27;;;8.57;;
7965;SDS011;4028;43.272;26.932;2023-04-23T05:35:40;14.03;;;8.30;;
7965;SDS011;4028;43.272;26.932;2023-04-23T05:38:06;17.67;;;8.73;;
7965;SDS011;4028;43.272;26.932;2023-04-23T05:40:32;13.90;;;7.70;;
7965;SDS011;4028;43.272;26.932;2023-04-23T05:42:58;9.40;;;8.17;;
7965;SDS011;4028;43.272;26.932;2023-04-23T05:45:23;11.20;;;7.63;;
7965;SDS011;4028;43.272;26.932;2023-04-23T05:47:49;10.43;;;7.73;;
7965;SDS011;4028;43.272;26.932;2023-04-23T05:50:15;8.80;;;7.17;;
7965;SDS011;4028;43.272;26.932;2023-04-23T05:52:41;12.27;;;7.30;;
7965;SDS011;4028;43.272;26.932;2023-04-23T05:55:06;7.67;;;6.93;;
7965;SDS011;4028;43.272;26.932;2023-04-23T05:57:33;9.17;;;6.73;;
7965;SDS011;4028;43.272;26.932;2023-04-23T06:00:00;14.50;;;7.13;;
7965;SDS011;4028;43.272;26.932;2023-04-23T06:02:26;7.77;;;6.40;;
7965;SDS011;4028;43.272;26.932;2023-04-23T06:04:53;9.73;;;6.90;;
7965;SDS011;4028;43.272;26.932;2023-04-23T06:07:18;9.97;;;7.07;;
7965;SDS011;4028;43.272;26.932;2023-04-23T06:09:44;9.87;;;7.63;;
7965;SDS011;4028;43.272;26.932;2023-04-23T06:12:10;11.07;;;6.90;;
7965;SDS011;4028;43.272;26.932;2023-04-23T06:14:35;11.40;;;7.03;;
7965;SDS011;4028;43.272;26.932;2023-04-23T06:17:01;12.00;;;6.50;;
7965;SDS011;4028;43.272;26.932;2023-04-23T06:19:26;15.23;;;6.82;;
7965;SDS011;4028;43.272;26.932;2023-04-23T06:21:52;8.63;;;6.63;;
7965;SDS011;4028;43.272;26.932;2023-04-23T06:24:18;9.45;;;5.95;;
7965;SDS011;4028;43.272;26.932;2023-04-23T06:26:43;9.30;;;6.05;;
7965;SDS011;4028;43.272;26.932;2023-04-23T06:29:09;9.02;;;5.65;;
7965;SDS011;4028;43.272;26.932;2023-04-23T06:31:34;7.50;;;5.57;;
7965;SDS011;4028;43.272;26.932;2023-04-23T06:34:00;9.20;;;5.57;;
7965;SDS011;4028;43.272;26.932;2023-04-23T06:36:25;10.13;;;5.72;;
7965;SDS011;4028;43.272;26.932;2023-04-23T06:38:51;9.07;;;5.25;;
7965;SDS011;4028;43.272;26.932;2023-04-23T06:41:17;7.25;;;5.13;;
7965;SDS011;4028;43.272;26.932;2023-04-23T06:43:42;8.02;;;5.35;;
7965;SDS011;4028;43.272;26.932;2023-04-23T06:46:09;9.15;;;5.30;;
7965;SDS011;4028;43.272;26.932;2023-04-23T06:48:35;7.45;;;5.00;;
7965;SDS011;4028;43.272;26.932;2023-04-23T06:51:01;8.27;;;5.07;;
7965;SDS011;4028;43.272;26.932;2023-04-23T06:53:27;9.65;;;5.38;;
7965;SDS011;4028;43.272;26.932;2023-04-23T06:55:52;7.70;;;4.88;;
7965;SDS011;4028;43.272;26.932;2023-04-23T06:58:18;9.38;;;4.97;;
7965;SDS011;4028;43.272;26.932;2023-04-23T07:00:43;10.52;;;4.57;;
7965;SDS011;4028;43.272;26.932;2023-04-23T07:03:09;6.55;;;4.38;;
7965;SDS011;4028;43.272;26.932;2023-04-23T07:05:35;6.55;;;5.40;;
7965;SDS011;4028;43.272;26.932;2023-04-23T07:08:01;7.07;;;5.13;;
7965;SDS011;4028;43.272;26.932;2023-04-23T07:10:26;6.60;;;5.22;;
7965;SDS011;4028;43.272;26.932;2023-04-23T07:12:52;8.60;;;5.40;;
7965;SDS011;4028;43.272;26.932;2023-04-23T07:15:17;8.00;;;5.50;;
7965;SDS011;4028;43.272;26.932;2023-04-23T07:17:43;9.63;;;4.28;;
7965;SDS011;4028;43.272;26.932;2023-04-23T07:20:08;8.90;;;4.20;;
7965;SDS011;4028;43.272;26.932;2023-04-23T07:22:34;6.10;;;4.30;;
7965;SDS011;4028;43.272;26.932;2023-04-23T07:24:59;6.38;;;3.78;;
7965;SDS011;4028;43.272;26.932;2023-04-23T07:27:26;6.25;;;5.00;;
7965;SDS011;4028;43.272;26.932;2023-04-23T07:29:52;10.18;;;4.18;;
7965;SDS011;4028;43.272;26.932;2023-04-23T07:32:17;14.02;;;5.40;;
7965;SDS011;4028;43.272;26.932;2023-04-23T07:34:43;6.60;;;4.53;;
7965;SDS011;4028;43.272;26.932;2023-04-23T07:37:08;6.53;;;4.32;;
7965;SDS011;4028;43.272;26.932;2023-04-23T07:39:34;9.63;;;4.32;;
7965;SDS011;4028;43.272;26.932;2023-04-23T07:41:59;4.68;;;3.78;;
7965;SDS011;4028;43.272;26.932;2023-04-23T07:44:26;8.32;;;4.70;;
7965;SDS011;4028;43.272;26.932;2023-04-23T07:46:51;7.75;;;4.13;;
7965;SDS011;4028;43.272;26.932;2023-04-23T07:49:17;13.38;;;4.60;;
7965;SDS011;4028;43.272;26.932;2023-04-23T07:51:42;8.73;;;4.13;;
7965;SDS011;4028;43.272;26.932;2023-04-23T07:54:08;8.48;;;4.28;;
7965;SDS011;4028;43.272;26.932;2023-04-23T07:56:34;6.25;;;4.07;;
7965;SDS011;4028;43.272;26.932;2023-04-23T07:59:00;7.15;;;4.13;;
7965;SDS011;4028;43.272;26.932;2023-04-23T08:01:26;10.98;;;5.00;;
7965;SDS011;4028;43.272;26.932;2023-04-23T08:03:51;8.20;;;3.88;;
7965;SDS011;4028;43.272;26.932;2023-04-23T08:06:20;9.43;;;4.70;;
7965;SDS011;4028;43.272;26.932;2023-04-23T08:08:45;6.30;;;4.45;;
7965;SDS011;4028;43.272;26.932;2023-04-23T08:11:11;4.15;;;3.75;;
7965;SDS011;4028;43.272;26.932;2023-04-23T08:13:36;8.02;;;4.30;;
7965;SDS011;4028;43.272;26.932;2023-04-23T08:16:02;9.93;;;3.97;;
7965;SDS011;4028;43.272;26.932;2023-04-23T08:18:27;7.78;;;4.28;;
7965;SDS011;4028;43.272;26.932;2023-04-23T08:20:53;8.68;;;4.45;;
7965;SDS011;4028;43.272;26.932;2023-04-23T08:23:20;8.88;;;4.25;;
7965;SDS011;4028;43.272;26.932;2023-04-23T08:25:46;7.28;;;4.38;;
7965;SDS011;4028;43.272;26.932;2023-04-23T08:28:11;7.07;;;4.40;;
7965;SDS011;4028;43.272;26.932;2023-04-23T08:30:37;6.28;;;3.85;;
7965;SDS011;4028;43.272;26.932;2023-04-23T08:33:03;9.90;;;4.10;;
7965;SDS011;4028;43.272;26.932;2023-04-23T08:35:28;8.98;;;4.22;;
7965;SDS011;4028;43.272;26.932;2023-04-23T08:37:54;8.73;;;3.95;;
7965;SDS011;4028;43.272;26.932;2023-04-23T08:40:19;5.57;;;3.55;;
7965;SDS011;4028;43.272;26.932;2023-04-23T08:42:49;7.30;;;4.03;;
7965;SDS011;4028;43.272;26.932;2023-04-23T08:45:22;9.18;;;3.70;;
7965;SDS011;4028;43.272;26.932;2023-04-23T08:47:48;5.80;;;4.03;;
7965;SDS011;4028;43.272;26.932;2023-04-23T08:50:15;7.93;;;4.50;;
7965;SDS011;4028;43.272;26.932;2023-04-23T08:52:46;5.15;;;4.13;;
7965;SDS011;4028;43.272;26.932;2023-04-23T08:55:14;8.75;;;3.95;;
7965;SDS011;4028;43.272;26.932;2023-04-23T08:57:42;9.35;;;4.20;;
7965;SDS011;4028;43.272;26.932;2023-04-23T09:00:10;6.75;;;4.15;;
7965;SDS011;4028;43.272;26.932;2023-04-23T09:02:36;6.10;;;4.22;;
7965;SDS011;4028;43.272;26.932;2023-04-23T09:05:07;9.02;;;3.78;;
7965;SDS011;4028;43.272;26.932;2023-04-23T09:07:33;6.90;;;3.80;;
7965;SDS011;4028;43.272;26.932;2023-04-23T09:10:04;7.88;;;4.93;;
7965;SDS011;4028;43.272;26.932;2023-04-23T09:12:30;5.90;;;4.20;;
7965;SDS011;4028;43.272;26.932;2023-04-23T09:14:58;7.30;;;3.90;;
7965;SDS011;4028;43.272;26.932;2023-04-23T09:17:27;6.05;;;4.13;;
7965;SDS011;4028;43.272;26.932;2023-04-23T09:19:54;7.20;;;4.20;;
7965;SDS011;4028;43.272;26.932;2023-04-23T09:22:38;9.05;;;3.95;;
7965;SDS011;4028;43.272;26.932;2023-04-23T09:25:04;9.05;;;4.30;;
7965;SDS011;4028;43.272;26.932;2023-04-23T09:27:31;8.80;;;3.90;;
7965;SDS011;4028;43.272;26.932;2023-04-23T09:29:57;9.50;;;4.22;;
7965;SDS011;4028;43.272;26.932;2023-04-23T09:32:32;4.88;;;3.80;;
7965;SDS011;4028;43.272;26.932;2023-04-23T09:34:58;7.75;;;4.35;;
7965;SDS011;4028;43.272;26.932;2023-04-23T09:37:27;7.40;;;3.72;;
7965;SDS011;4028;43.272;26.932;2023-04-23T09:39:52;7.95;;;4.28;;
7965;SDS011;4028;43.272;26.932;2023-04-23T09:42:22;6.20;;;4.20;;
7965;SDS011;4028;43.272;26.932;2023-04-23T09:45:10;4.47;;;3.55;;
7965;SDS011;4028;43.272;26.932;2023-04-23T09:47:37;6.55;;;4.05;;
7965;SDS011;4028;43.272;26.932;2023-04-23T09:50:04;10.85;;;4.40;;
7965;SDS011;4028;43.272;26.932;2023-04-23T09:52:33;6.38;;;3.50;;
7965;SDS011;4028;43.272;26.932;2023-04-23T09:55:03;5.78;;;3.63;;
7965;SDS011;4028;43.272;26.932;2023-04-23T09:57:34;7.78;;;4.55;;
7965;SDS011;4028;43.272;26.932;2023-04-23T10:00:14;6.03;;;4.90;;
7965;SDS011;4028;43.272;26.932;2023-04-23T10:02:47;5.97;;;3.70;;
7965;SDS011;4028;43.272;26.932;2023-04-23T10:05:15;6.45;;;3.78;;
7965;SDS011;4028;43.272;26.932;2023-04-23T10:07:40;5.38;;;3.67;;
7965;SDS011;4028;43.272;26.932;2023-04-23T10:10:08;5.35;;;3.95;;
7965;SDS011;4028;43.272;26.932;2023-04-23T10:12:33;4.47;;;3.50;;
7965;SDS011;4028;43.272;26.932;2023-04-23T10:15:01;6.05;;;3.75;;
7965;SDS011;4028;43.272;26.932;2023-04-23T10:17:28;5.75;;;4.03;;
7965;SDS011;4028;43.272;26.932;2023-04-23T10:19:54;7.35;;;3.75;;
7965;SDS011;4028;43.272;26.932;2023-04-23T10:22:22;8.00;;;3.72;;
7965;SDS011;4028;43.272;26.932;2023-04-23T10:24:52;5.03;;;4.10;;
7965;SDS011;4028;43.272;26.932;2023-04-23T10:27:21;7.07;;;3.83;;
7965;SDS011;4028;43.272;26.932;2023-04-23T10:29:50;7.65;;;3.95;;
7965;SDS011;4028;43.272;26.932;2023-04-23T10:32:16;5.82;;;3.90;;
7965;SDS011;4028;43.272;26.932;2023-04-23T10:34:44;4.55;;;3.97;;
7965;SDS011;4028;43.272;26.932;2023-04-23T10:37:09;6.35;;;4.03;;
7965;SDS011;4028;43.272;26.932;2023-04-23T10:39:36;6.38;;;3.70;;
7965;SDS011;4028;43.272;26.932;2023-04-23T10:42:02;8.80;;;3.92;;
7965;SDS011;4028;43.272;26.932;2023-04-23T10:44:35;6.20;;;4.78;;
7965;SDS011;4028;43.272;26.932;2023-04-23T10:47:02;7.50;;;3.60;;
7965;SDS011;4028;43.272;26.932;2023-04-23T10:49:29;5.50;;;3.50;;
7965;SDS011;4028;43.272;26.932;2023-04-23T10:54:29;7.30;;;3.92;;
7965;SDS011;4028;43.272;26.932;2023-04-23T10:57:03;6.63;;;4.05;;
7965;SDS011;4028;43.272;26.932;2023-04-23T10:59:31;6.22;;;4.43;;
7965;SDS011;4028;43.272;26.932;2023-04-23T11:01:58;5.95;;;3.67;;
7965;SDS011;4028;43.272;26.932;2023-04-23T11:04:31;4.65;;;3.80;;
7965;SDS011;4028;43.272;26.932;2023-04-23T11:07:08;8.73;;;4.05;;
7965;SDS011;4028;43.272;26.932;2023-04-23T11:14:55;4.78;;;3.40;;
7965;SDS011;4028;43.272;26.932;2023-04-23T11:17:21;7.97;;;3.60;;
7965;SDS011;4028;43.272;26.932;2023-04-23T11:22:42;5.25;;;3.97;;
7965;SDS011;4028;43.272;26.932;2023-04-23T11:25:23;5.53;;;3.85;;
7965;SDS011;4028;43.272;26.932;2023-04-23T11:27:50;5.07;;;3.83;;
7965;SDS011;4028;43.272;26.932;2023-04-23T11:30:21;6.55;;;3.67;;
7965;SDS011;4028;43.272;26.932;2023-04-23T11:32:49;5.00;;;3.80;;
7965;SDS011;4028;43.272;26.932;2023-04-23T11:35:20;8.43;;;3.67;;
7965;SDS011;4028;43.272;26.932;2023-04-23T11:37:47;9.85;;;4.32;;
7965;SDS011;4028;43.272;26.932;2023-04-23T11:40:14;4.72;;;3.85;;
7965;SDS011;4028;43.272;26.932;2023-04-23T11:42:51;5.72;;;3.85;;
7965;SDS011;4028;43.272;26.932;2023-04-23T11:47:45;6.45;;;4.10;;
7965;SDS011;4028;43.272;26.932;2023-04-23T11:50:16;4.80;;;3.50;;
7965;SDS011;4028;43.272;26.932;2023-04-23T11:52:42;7.38;;;3.65;;
7965;SDS011;4028;43.272;26.932;2023-04-23T11:55:08;6.40;;;3.50;;
7965;SDS011;4028;43.272;26.932;2023-04-23T11:57:44;4.03;;;3.63;;
7965;SDS011;4028;43.272;26.932;2023-04-23T12:00:17;7.97;;;3.65;;
7965;SDS011;4028;43.272;26.932;2023-04-23T12:05:20;9.73;;;3.50;;
7965;SDS011;4028;43.272;26.932;2023-04-23T12:08:07;5.53;;;3.58;;
7965;SDS011;4028;43.272;26.932;2023-04-23T12:10:44;5.25;;;3.97;;
7965;SDS011;4028;43.272;26.932;2023-04-23T12:13:20;4.20;;;3.90;;
7965;SDS011;4028;43.272;26.932;2023-04-23T12:15:51;4.20;;;3.80;;
7965;SDS011;4028;43.272;26.932;2023-04-23T12:18:25;7.18;;;4.10;;
7965;SDS011;4028;43.272;26.932;2023-04-23T12:20:54;8.07;;;3.70;;
7965;SDS011;4028;43.272;26.932;2023-04-23T12:23:27;5.18;;;3.42;;
7965;SDS011;4028;43.272;26.932;2023-04-23T12:25:53;5.85;;;3.50;;
7965;SDS011;4028;43.272;26.932;2023-04-23T12:28:23;7.28;;;3.47;;
7965;SDS011;4028;43.272;26.932;2023-04-23T12:30:49;6.88;;;3.95;;
7965;SDS011;4028;43.272;26.932;2023-04-23T12:33:14;7.13;;;4.32;;
7965;SDS011;4028;43.272;26.932;2023-04-23T12:35:41;5.80;;;3.97;;
7965;SDS011;4028;43.272;26.932;2023-04-23T12:38:08;6.65;;;4.30;;
7965;SDS011;4028;43.272;26.932;2023-04-23T12:40:47;3.95;;;3.65;;
7965;SDS011;4028;43.272;26.932;2023-04-23T12:43:13;6.20;;;3.42;;
7965;SDS011;4028;43.272;26.932;2023-04-23T12:45:38;3.85;;;3.47;;
7965;SDS011;4028;43.272;26.932;2023-04-23T12:48:04;5.82;;;3.72;;
7965;SDS011;4028;43.272;26.932;2023-04-23T12:50:29;7.20;;;3.53;;
7965;SDS011;4028;43.272;26.932;2023-04-23T12:52:55;7.25;;;3.90;;
7965;SDS011;4028;43.272;26.932;2023-04-23T12:55:20;3.85;;;3.28;;
7965;SDS011;4028;43.272;26.932;2023-04-23T12:57:46;5.63;;;3.88;;
7965;SDS011;4028;43.272;26.932;2023-04-23T13:00:11;4.18;;;3.38;;
7965;SDS011;4028;43.272;26.932;2023-04-23T13:02:37;5.10;;;3.85;;
7965;SDS011;4028;43.272;26.932;2023-04-23T13:05:03;4.78;;;3.60;;
7965;SDS011;4028;43.272;26.932;2023-04-23T13:07:29;3.38;;;3.08;;
7965;SDS011;4028;43.272;26.932;2023-04-23T13:09:55;6.22;;;3.42;;
7965;SDS011;4028;43.272;26.932;2023-04-23T13:12:21;3.78;;;3.38;;
7965;SDS011;4028;43.272;26.932;2023-04-23T13:14:47;8.57;;;3.85;;
7965;SDS011;4028;43.272;26.932;2023-04-23T13:17:12;5.05;;;3.83;;
7965;SDS011;4028;43.272;26.932;2023-04-23T13:19:39;10.63;;;4.57;;
7965;SDS011;4028;43.272;26.932;2023-04-23T13:22:04;4.15;;;3.65;;
7965;SDS011;4028;43.272;26.932;2023-04-23T13:24:30;4.30;;;3.90;;
7965;SDS011;4028;43.272;26.932;2023-04-23T13:26:55;4.20;;;3.72;;
7965;SDS011;4028;43.272;26.932;2023-04-23T13:29:22;4.82;;;4.00;;
7965;SDS011;4028;43.272;26.932;2023-04-23T13:31:48;4.78;;;3.78;;
7965;SDS011;4028;43.272;26.932;2023-04-23T13:34:13;4.10;;;3.47;;
7965;SDS011;4028;43.272;26.932;2023-04-23T13:36:39;6.35;;;4.10;;
7965;SDS011;4028;43.272;26.932;2023-04-23T13:39:07;12.77;;;3.97;;
7965;SDS011;4028;43.272;26.932;2023-04-23T13:41:35;6.78;;;4.28;;
7965;SDS011;4028;43.272;26.932;2023-04-23T13:44:00;7.22;;;4.10;;
7965;SDS011;4028;43.272;26.932;2023-04-23T13:46:26;4.43;;;4.03;;
7965;SDS011;4028;43.272;26.932;2023-04-23T13:48:52;7.63;;;4.38;;
7965;SDS011;4028;43.272;26.932;2023-04-23T13:51:17;6.38;;;4.10;;
7965;SDS011;4028;43.272;26.932;2023-04-23T13:53:43;4.80;;;4.03;;
7965;SDS011;4028;43.272;26.932;2023-04-23T13:56:09;6.40;;;3.90;;
7965;SDS011;4028;43.272;26.932;2023-04-23T13:58:34;5.30;;;3.95;;
7965;SDS011;4028;43.272;26.932;2023-04-23T14:01:00;8.40;;;4.38;;
7965;SDS011;4028;43.272;26.932;2023-04-23T14:03:25;8.07;;;4.60;;
7965;SDS011;4028;43.272;26.932;2023-04-23T14:05:51;8.18;;;4.10;;
7965;SDS011;4028;43.272;26.932;2023-04-23T14:08:16;7.63;;;4.03;;
7965;SDS011;4028;43.272;26.932;2023-04-23T14:10:42;12.05;;;5.28;;
7965;SDS011;4028;43.272;26.932;2023-04-23T14:13:07;12.82;;;4.82;;
7965;SDS011;4028;43.272;26.932;2023-04-23T14:15:33;6.13;;;4.60;;
7965;SDS011;4028;43.272;26.932;2023-04-23T14:17:59;8.18;;;4.18;;
7965;SDS011;4028;43.272;26.932;2023-04-23T14:20:25;8.65;;;4.35;;
7965;SDS011;4028;43.272;26.932;2023-04-23T14:22:54;5.70;;;4.13;;
7965;SDS011;4028;43.272;26.932;2023-04-23T14:25:40;4.13;;;3.72;;
7965;SDS011;4028;43.272;26.932;2023-04-23T14:28:22;5.75;;;4.20;;
7965;SDS011;4028;43.272;26.932;2023-04-23T14:30:56;7.78;;;4.50;;
7965;SDS011;4028;43.272;26.932;2023-04-23T14:33:22;8.20;;;4.65;;
7965;SDS011;4028;43.272;26.932;2023-04-23T14:35:48;8.18;;;4.13;;
7965;SDS011;4028;43.272;26.932;2023-04-23T14:38:13;8.02;;;4.35;;
7965;SDS011;4028;43.272;26.932;2023-04-23T14:40:39;4.50;;;4.07;;
7965;SDS011;4028;43.272;26.932;2023-04-23T14:43:04;13.30;;;4.20;;
7965;SDS011;4028;43.272;26.932;2023-04-23T14:45:30;7.18;;;4.03;;
7965;SDS011;4028;43.272;26.932;2023-04-23T14:47:57;7.80;;;4.20;;
7965;SDS011;4028;43.272;26.932;2023-04-23T14:50:23;6.45;;;4.13;;
7965;SDS011;4028;43.272;26.932;2023-04-23T14:52:48;6.30;;;4.00;;
7965;SDS011;4028;43.272;26.932;2023-04-23T14:55:14;7.20;;;4.25;;
7965;SDS011;4028;43.272;26.932;2023-04-23T14:57:43;8.20;;;3.95;;
7965;SDS011;4028;43.272;26.932;2023-04-23T15:00:08;6.60;;;4.40;;
7965;SDS011;4028;43.272;26.932;2023-04-23T15:02:37;6.50;;;4.00;;
7965;SDS011;4028;43.272;26.932;2023-04-23T15:05:07;5.97;;;4.35;;
7965;SDS011;4028;43.272;26.932;2023-04-23T15:07:33;6.53;;;4.15;;
7965;SDS011;4028;43.272;26.932;2023-04-23T15:09:59;8.85;;;4.70;;
7965;SDS011;4028;43.272;26.932;2023-04-23T15:12:40;7.60;;;4.72;;